createdAt,value
2018-09-24T00:01:39.544Z,10.05
2018-09-24T00:04:08.616Z,10.11
2018-09-24T00:06:37.743Z,10.23
2018-09-24T00:09:09.364Z,10.22
2018-09-24T00:11:38.445Z,10.18
2018-09-24T00:14:07.552Z,10.14
2018-09-24T00:16:36.607Z,10.09
2018-09-24T00:19:05.680Z,10.20
2018-09-24T00:21:34.780Z,10.19
2018-09-24T00:24:03.892Z,10.04
2018-09-24T00:26:33.476Z,10.06
2018-09-24T00:29:02.529Z,10.07
2018-09-24T00:31:31.588Z,10.08
2018-09-24T00:34:00.709Z,10.07
2018-09-24T00:36:29.752Z,10.05
2018-09-24T00:38:58.852Z,10.02
2018-09-24T00:41:27.920Z,9.95
2018-09-24T00:43:56.980Z,9.93
2018-09-24T00:46:26.056Z,9.95
2018-09-24T00:48:55.188Z,9.99
2018-09-24T00:51:24.269Z,9.98
2018-09-24T00:53:53.352Z,9.86
2018-09-24T00:56:22.455Z,9.77
2018-09-24T00:58:51.577Z,9.83
2018-09-24T01:01:20.657Z,9.78
2018-09-24T01:03:49.752Z,9.79
2018-09-24T01:06:18.849Z,9.76
2018-09-24T01:08:47.885Z,9.79
2018-09-24T01:11:16.960Z,9.76
2018-09-24T01:13:46.004Z,9.79
2018-09-24T01:16:15.102Z,9.65
2018-09-24T01:18:44.200Z,9.83
2018-09-24T01:21:13.292Z,9.84
2018-09-24T01:23:42.412Z,9.73
2018-09-24T01:26:11.620Z,9.67
2018-09-24T01:28:40.800Z,9.55
2018-09-24T01:31:09.907Z,9.50
2018-09-24T01:33:39.004Z,9.32
2018-09-24T01:36:08.068Z,9.28
2018-09-24T01:38:37.152Z,9.21
2018-09-24T01:41:06.240Z,9.24
2018-09-24T01:43:35.338Z,9.26
2018-09-24T01:46:04.371Z,9.24
2018-09-24T01:48:33.463Z,9.22
2018-09-24T01:51:02.541Z,9.28
2018-09-24T01:53:31.656Z,9.34
2018-09-24T01:56:00.756Z,9.33
2018-09-24T01:58:29.825Z,9.39
2018-09-24T02:00:58.944Z,9.39
2018-09-24T02:03:35.515Z,9.49
2018-09-24T02:06:05.592Z,9.53
2018-09-24T02:08:42.896Z,9.59
2018-09-24T02:11:12.224Z,9.54
2018-09-24T02:13:50.053Z,9.45
2018-09-24T02:16:19.838Z,9.36
2018-09-24T02:18:49.446Z,9.29
2018-09-24T02:21:18.980Z,9.13
2018-09-24T02:23:48.044Z,9.02
2018-09-24T02:26:17.112Z,8.89
2018-09-24T02:28:46.155Z,8.84
2018-09-24T02:31:15.275Z,8.79
2018-09-24T02:33:44.425Z,8.69
2018-09-24T02:36:13.472Z,8.62
2018-09-24T02:38:42.553Z,8.57
2018-09-24T02:41:11.607Z,8.49
2018-09-24T02:43:40.642Z,8.45
2018-09-24T02:46:09.737Z,8.43
2018-09-24T02:48:38.803Z,8.37
2018-09-24T02:51:07.853Z,8.34
2018-09-24T02:53:39.904Z,8.31
2018-09-24T02:56:09.677Z,8.21
2018-09-24T02:58:38.812Z,8.16
2018-09-24T03:01:07.918Z,8.15
2018-09-24T03:03:36.949Z,8.08
2018-09-24T03:06:06.016Z,8.05
2018-09-24T03:08:37.289Z,7.98
2018-09-24T03:11:06.533Z,7.97
2018-09-24T03:13:35.536Z,7.95
2018-09-24T03:16:04.985Z,7.85
2018-09-24T03:18:34.060Z,7.79
2018-09-24T03:21:03.281Z,7.74
2018-09-24T03:23:32.581Z,7.70
2018-09-24T03:26:01.618Z,7.62
2018-09-24T03:28:30.620Z,7.60
2018-09-24T03:30:59.724Z,7.57
2018-09-24T03:33:29.757Z,7.55
2018-09-24T03:35:58.772Z,7.47
2018-09-24T03:38:27.892Z,7.42
2018-09-24T03:40:57.019Z,7.34
2018-09-24T03:43:26.061Z,7.26
2018-09-24T03:45:55.160Z,7.22
2018-09-24T03:48:24.196Z,7.22
2018-09-24T03:50:53.265Z,7.15
2018-09-24T03:53:22.394Z,7.08
2018-09-24T03:55:51.455Z,7.01
2018-09-24T03:58:20.612Z,7.02
2018-09-24T04:00:50.160Z,7.03
2018-09-24T04:03:20.108Z,6.94
2018-09-24T04:05:54.368Z,6.92
2018-09-24T04:08:28.770Z,6.90
2018-09-24T04:11:03.143Z,6.84
2018-09-24T04:13:37.452Z,6.80
2018-09-24T04:16:11.788Z,6.75
2018-09-24T04:18:46.141Z,6.74
2018-09-24T04:21:20.481Z,6.73
2018-09-24T04:23:54.790Z,6.71
2018-09-24T04:26:29.349Z,6.76
2018-09-24T04:29:03.672Z,6.75
2018-09-24T04:31:37.988Z,6.65
2018-09-24T04:34:12.433Z,6.73
2018-09-24T04:36:46.798Z,6.73
2018-09-24T04:39:21.202Z,6.72
2018-09-24T04:41:55.897Z,6.73
2018-09-24T04:44:30.284Z,6.61
2018-09-24T04:47:04.681Z,6.53
2018-09-24T04:49:38.916Z,6.47
2018-09-24T04:52:13.296Z,6.39
2018-09-24T04:54:47.692Z,6.29
2018-09-24T04:57:22.009Z,6.21
2018-09-24T04:59:56.304Z,6.18
2018-09-24T05:02:30.669Z,6.17
2018-09-24T05:05:05.037Z,6.19
2018-09-24T05:07:39.408Z,6.23
2018-09-24T05:10:14.029Z,6.27
2018-09-24T05:12:48.420Z,6.29
2018-09-24T05:15:22.920Z,6.30
2018-09-24T05:17:57.216Z,6.29
2018-09-24T05:20:31.561Z,6.31
2018-09-24T05:23:06.008Z,6.23
2018-09-24T05:25:40.372Z,6.13
2018-09-24T05:28:14.772Z,6.17
2018-09-24T05:30:49.064Z,6.20
2018-09-24T05:33:24.339Z,6.15
2018-09-24T05:39:00.908Z,6.25
2018-09-24T05:41:35.384Z,6.22
2018-09-24T05:44:09.740Z,6.17
2018-09-24T05:46:44.196Z,6.27
2018-09-24T05:49:19.749Z,6.25
2018-09-24T05:51:54.056Z,6.26
2018-09-24T05:54:28.569Z,6.31
2018-09-24T05:57:02.948Z,6.41
2018-09-24T05:59:37.308Z,6.55
2018-09-24T06:02:12.157Z,6.66
2018-09-24T06:04:46.496Z,6.71
2018-09-24T06:07:20.897Z,6.90
2018-09-24T06:09:55.212Z,7.29
2018-09-24T06:12:29.584Z,7.38
2018-09-24T06:15:04.210Z,7.44
2018-09-24T06:17:38.672Z,7.71
2018-09-24T06:20:13.490Z,7.95
2018-09-24T06:22:47.874Z,8.07
2018-09-24T06:25:22.464Z,8.42
2018-09-24T06:27:56.875Z,8.80
2018-09-24T06:30:31.245Z,9.07
2018-09-24T06:33:05.589Z,9.54
2018-09-24T06:35:40.204Z,11.11
2018-09-24T06:38:15.072Z,13.40
2018-09-24T06:40:49.469Z,15.65
2018-09-24T06:43:23.792Z,17.61
2018-09-24T06:45:58.128Z,18.89
2018-09-24T06:48:32.620Z,20.09
2018-09-24T06:51:07.057Z,20.65
2018-09-24T06:53:41.376Z,21.57
2018-09-24T06:56:15.904Z,22.32
2018-09-24T06:58:50.152Z,22.90
2018-09-24T07:01:24.452Z,23.55
2018-09-24T07:03:58.856Z,24.17
2018-09-24T07:06:33.234Z,20.21
2018-09-24T07:09:07.577Z,22.57
2018-09-24T07:11:42.041Z,24.46
2018-09-24T07:14:16.416Z,22.72
2018-09-24T07:16:51.118Z,24.33
2018-09-24T07:19:25.689Z,25.13
2018-09-24T07:21:59.985Z,25.63
2018-09-24T07:24:34.324Z,26.13
2018-09-24T07:27:08.948Z,27.91
2018-09-24T07:29:43.264Z,28.21
2018-09-24T07:32:17.847Z,24.95
2018-09-24T07:34:52.400Z,27.27
2018-09-24T07:37:26.912Z,27.38
2018-09-24T07:40:01.481Z,25.66
2018-09-24T07:42:36.134Z,26.02
2018-09-24T07:45:10.409Z,24.83
2018-09-24T07:47:44.939Z,26.47
2018-09-24T07:50:19.499Z,27.68
2018-09-24T07:52:53.840Z,27.94
2018-09-24T07:55:28.240Z,26.99
2018-09-24T07:58:02.556Z,28.18
2018-09-24T08:00:36.871Z,23.37
2018-09-24T08:03:11.774Z,24.30
2018-09-24T08:05:46.244Z,27.88
2018-09-24T08:08:20.556Z,29.86
2018-09-24T08:10:54.924Z,30.71
2018-09-24T08:13:29.333Z,30.97
2018-09-24T08:16:03.732Z,30.07
2018-09-24T08:18:37.965Z,26.79
2018-09-24T08:21:12.560Z,28.18
2018-09-24T08:23:46.776Z,27.98
2018-09-24T08:26:21.300Z,28.47
2018-09-24T08:28:55.772Z,26.13
2018-09-24T08:31:30.060Z,27.89
2018-09-24T08:34:04.398Z,29.82
2018-09-24T08:36:38.825Z,31.34
2018-09-24T08:39:13.592Z,32.74
2018-09-24T08:41:48.356Z,33.36
2018-09-24T08:44:22.837Z,32.05
2018-09-24T08:46:57.200Z,31.54
2018-09-24T08:49:31.617Z,33.61
2018-09-24T08:52:05.940Z,32.23
2018-09-24T08:54:40.265Z,33.73
2018-09-24T08:57:14.625Z,32.38
2018-09-24T08:59:49.283Z,28.31
2018-09-24T09:02:23.732Z,28.23
2018-09-24T09:04:59.852Z,27.74
2018-09-24T09:07:34.247Z,27.48
2018-09-24T09:10:08.617Z,28.52
2018-09-24T09:12:43.068Z,30.31
2018-09-24T09:15:17.570Z,31.97
2018-09-24T09:17:52.060Z,28.68
2018-09-24T09:20:26.364Z,25.97
2018-09-24T09:23:00.816Z,26.76
2018-09-24T09:25:35.048Z,28.29
2018-09-24T09:28:09.411Z,28.66
2018-09-24T09:30:43.792Z,28.58
2018-09-24T09:33:18.091Z,28.68
2018-09-24T09:35:52.496Z,28.17
2018-09-24T09:38:27.860Z,27.48
2018-09-24T09:41:02.229Z,27.13
2018-09-24T09:43:36.592Z,28.14
2018-09-24T09:46:10.810Z,26.86
2018-09-24T09:48:45.316Z,28.64
2018-09-24T09:51:19.612Z,27.85
2018-09-24T09:53:54.157Z,28.38
2018-09-24T09:56:28.544Z,28.33
2018-09-24T09:59:02.987Z,30.41
2018-09-24T10:01:37.358Z,29.56
2018-09-24T10:04:11.804Z,29.14
2018-09-24T10:06:46.361Z,27.74
2018-09-24T10:09:21.057Z,27.58
2018-09-24T10:11:55.349Z,25.50
2018-09-24T10:14:29.647Z,27.08
2018-09-24T10:17:03.956Z,28.33
2018-09-24T10:19:38.359Z,27.70
2018-09-24T10:22:12.584Z,28.36
2018-09-24T10:24:47.004Z,28.52
2018-09-24T10:27:21.641Z,29.42
2018-09-24T10:29:56.080Z,30.50
2018-09-24T10:32:30.428Z,29.65
2018-09-24T10:35:05.100Z,29.34
2018-09-24T10:37:39.400Z,27.95
2018-09-24T10:40:14.402Z,29.77
2018-09-24T10:42:48.893Z,30.41
2018-09-24T10:45:23.376Z,29.78
2018-09-24T10:47:57.900Z,24.79
2018-09-24T10:50:32.420Z,25.85
2018-09-24T10:53:06.938Z,26.84
2018-09-24T10:55:42.371Z,27.08
2018-09-24T10:58:17.072Z,25.79
2018-09-24T11:00:51.464Z,25.23
2018-09-24T11:03:26.080Z,23.49
2018-09-24T11:06:00.472Z,24.51
2018-09-24T11:08:34.868Z,24.78
2018-09-24T11:11:09.437Z,24.08
2018-09-24T11:13:43.653Z,24.37
2018-09-24T11:16:18.116Z,24.54
2018-09-24T11:18:52.707Z,22.58
2018-09-24T11:21:27.020Z,23.22
2018-09-24T11:24:01.492Z,24.72
2018-09-24T11:26:35.841Z,24.23
2018-09-24T11:29:10.176Z,23.75
2018-09-24T11:31:44.809Z,23.01
2018-09-24T11:34:19.173Z,21.72
2018-09-24T11:36:53.548Z,20.59
2018-09-24T11:39:28.014Z,20.97
2018-09-24T11:42:02.444Z,21.08
2018-09-24T11:44:36.808Z,22.29
2018-09-24T11:47:11.983Z,21.73
2018-09-24T11:49:46.172Z,20.27
2018-09-24T11:52:20.528Z,20.66
2018-09-24T11:54:54.952Z,21.54
2018-09-24T11:57:29.574Z,20.75
2018-09-24T12:00:03.883Z,20.55
2018-09-24T12:02:38.356Z,19.58
2018-09-24T12:05:13.338Z,20.53
2018-09-24T12:07:47.797Z,21.29
2018-09-24T12:10:22.144Z,20.95
2018-09-24T12:12:56.554Z,22.17
2018-09-24T12:15:30.820Z,22.75
2018-09-24T12:18:06.028Z,22.93
2018-09-24T12:20:40.245Z,23.21
2018-09-24T12:23:14.952Z,24.23
2018-09-24T12:25:49.268Z,24.81
2018-09-24T12:28:23.747Z,24.55
2018-09-24T12:30:58.468Z,26.22
2018-09-24T12:33:32.816Z,23.82
2018-09-24T12:36:07.121Z,24.65
2018-09-24T12:38:41.808Z,24.97
2018-09-24T12:41:16.112Z,25.30
2018-09-24T12:43:50.829Z,24.70
2018-09-24T12:46:25.173Z,23.98
2018-09-24T12:48:59.540Z,23.52
2018-09-24T12:51:33.904Z,23.08
2018-09-24T12:54:08.456Z,22.95
2018-09-24T12:56:42.788Z,23.66
2018-09-24T12:59:17.532Z,23.47
2018-09-24T13:01:51.852Z,23.48
2018-09-24T13:04:26.156Z,22.82
2018-09-24T13:07:00.464Z,23.48
2018-09-24T13:09:34.789Z,24.25
2018-09-24T13:12:09.356Z,25.73
2018-09-24T13:14:43.868Z,23.86
2018-09-24T13:17:18.081Z,23.01
2018-09-24T13:19:52.504Z,22.34
2018-09-24T13:22:26.828Z,21.56
2018-09-24T13:25:01.147Z,20.79
2018-09-24T13:27:35.444Z,19.31
2018-09-24T13:30:10.060Z,19.22
2018-09-24T13:32:44.417Z,19.25
2018-09-24T13:35:18.801Z,19.99
2018-09-24T13:37:53.061Z,20.06
2018-09-24T13:40:27.436Z,19.91
2018-09-24T13:43:01.843Z,19.63
2018-09-24T13:45:37.149Z,20.15
2018-09-24T13:48:11.802Z,20.11
2018-09-24T13:50:46.232Z,20.27
2018-09-24T13:53:20.503Z,19.62
2018-09-24T13:55:54.904Z,20.42
2018-09-24T13:58:29.517Z,20.49
2018-09-24T14:01:03.972Z,20.03
2018-09-24T14:03:38.320Z,20.95
2018-09-24T14:06:12.971Z,21.35
2018-09-24T14:08:47.328Z,22.06
2018-09-24T14:11:21.608Z,21.95
2018-09-24T14:13:55.908Z,21.88
2018-09-24T14:16:30.426Z,21.21
2018-09-24T14:19:04.713Z,21.54
2018-09-24T14:21:39.185Z,21.02
2018-09-24T14:24:13.734Z,20.04
2018-09-24T14:26:48.076Z,19.81
2018-09-24T14:29:22.420Z,20.00
2018-09-24T14:31:56.984Z,19.71
2018-09-24T14:34:31.197Z,19.70
2018-09-24T14:37:05.500Z,19.66
2018-09-24T14:39:39.794Z,19.73
2018-09-24T14:42:14.048Z,19.20
2018-09-24T14:44:48.396Z,19.45
2018-09-24T14:47:22.848Z,19.51
2018-09-24T14:49:57.220Z,19.61
2018-09-24T14:52:31.612Z,19.06
2018-09-24T14:55:05.948Z,19.24
2018-09-24T14:57:40.327Z,18.98
2018-09-24T15:00:14.749Z,19.39
2018-09-24T15:02:49.601Z,18.83
2018-09-24T15:05:23.836Z,18.53
2018-09-24T15:07:58.212Z,18.79
2018-09-24T15:10:32.500Z,18.75
2018-09-24T15:13:09.420Z,18.94
2018-09-24T15:15:43.760Z,18.73
2018-09-24T15:18:18.164Z,18.14
2018-09-24T15:20:52.541Z,17.43
2018-09-24T15:23:27.253Z,17.57
2018-09-24T15:26:01.609Z,17.52
2018-09-24T15:28:37.168Z,16.78
2018-09-24T15:31:11.484Z,17.24
2018-09-24T15:33:45.896Z,17.17
2018-09-24T15:36:20.185Z,17.12
2018-09-24T15:38:54.430Z,16.37
2018-09-24T15:41:28.745Z,16.43
2018-09-24T15:44:03.281Z,15.63
2018-09-24T15:46:37.536Z,15.70
2018-09-24T15:49:12.028Z,15.98
2018-09-24T15:51:46.528Z,16.11
2018-09-24T15:54:21.600Z,16.19
2018-09-24T15:56:56.644Z,16.01
2018-09-24T15:59:30.961Z,15.85
2018-09-24T16:02:05.324Z,15.67
2018-09-24T16:04:39.657Z,15.69
2018-09-24T16:07:14.529Z,15.52
2018-09-24T16:09:49.080Z,15.56
2018-09-24T16:12:23.432Z,15.48
2018-09-24T16:14:57.913Z,15.49
2018-09-24T16:17:32.268Z,15.59
2018-09-24T16:20:06.644Z,15.71
2018-09-24T16:22:41.122Z,15.37
2018-09-24T16:25:15.501Z,15.56
2018-09-24T16:27:49.799Z,15.65
2018-09-24T16:30:24.288Z,15.47
2018-09-24T16:32:58.620Z,15.71
2018-09-24T16:35:32.989Z,15.62
2018-09-24T16:38:07.745Z,15.81
2018-09-24T16:40:42.152Z,15.78
2018-09-24T16:43:16.758Z,15.79
2018-09-24T16:45:51.141Z,15.83
2018-09-24T16:48:25.468Z,15.84
2018-09-24T16:50:59.804Z,15.80
2018-09-24T16:53:34.269Z,15.87
2018-09-24T16:56:08.560Z,15.82
2018-09-24T16:58:42.969Z,15.87
2018-09-24T17:01:17.309Z,15.79
2018-09-24T17:03:51.980Z,15.74
2018-09-24T17:06:26.446Z,15.69
2018-09-24T17:09:00.796Z,15.24
2018-09-24T17:11:35.242Z,15.22
2018-09-24T17:14:09.752Z,15.15
2018-09-24T17:16:44.340Z,14.98
2018-09-24T17:19:18.696Z,14.93
2018-09-24T17:21:53.021Z,14.60
2018-09-24T17:24:27.425Z,14.49
2018-09-24T17:27:01.703Z,14.44
2018-09-24T17:29:36.048Z,14.39
2018-09-24T17:32:10.425Z,14.22
2018-09-24T17:34:44.797Z,14.19
2018-09-24T17:37:19.060Z,14.13
2018-09-24T17:39:53.502Z,13.94
2018-09-24T17:42:27.924Z,13.96
2018-09-24T17:45:02.235Z,13.82
2018-09-24T17:47:36.588Z,13.86
2018-09-24T17:50:10.945Z,13.59
2018-09-24T17:52:45.429Z,13.76
2018-09-24T17:55:19.772Z,13.83
2018-09-24T17:57:54.032Z,13.89
2018-09-24T18:00:28.328Z,13.85
2018-09-24T18:03:02.811Z,13.73
2018-09-24T18:05:37.165Z,13.50
2018-09-24T18:08:11.505Z,13.65
2018-09-24T18:10:45.836Z,13.48
2018-09-24T18:13:20.121Z,13.51
2018-09-24T18:15:54.596Z,13.33
2018-09-24T18:18:29.140Z,13.24
2018-09-24T18:21:03.425Z,13.22
2018-09-24T18:23:37.655Z,13.12
2018-09-24T18:26:12.093Z,13.11
2018-09-24T18:28:46.357Z,13.11
2018-09-24T18:31:20.973Z,12.97
2018-09-24T18:33:55.269Z,13.06
2018-09-24T18:36:29.604Z,13.10
2018-09-24T18:39:04.013Z,13.08
2018-09-24T18:41:38.357Z,13.14
2018-09-24T18:44:12.759Z,13.01
2018-09-24T18:46:47.124Z,12.88
2018-09-24T18:49:21.373Z,12.70
2018-09-24T18:51:55.751Z,12.57
2018-09-24T18:54:30.065Z,12.35
2018-09-24T18:57:04.568Z,12.05
2018-09-24T18:59:38.909Z,11.63
2018-09-24T19:02:13.304Z,11.52
2018-09-24T19:04:47.685Z,11.39
2018-09-24T19:07:22.112Z,11.27
2018-09-24T19:09:56.545Z,11.18
2018-09-24T19:12:30.954Z,11.14
2018-09-24T19:15:05.236Z,11.06
2018-09-24T19:17:40.489Z,10.97
2018-09-24T19:20:14.882Z,10.91
2018-09-24T19:22:49.410Z,10.88
2018-09-24T19:25:23.720Z,10.85
2018-09-24T19:27:58.101Z,10.71
2018-09-24T19:30:32.486Z,10.68
2018-09-24T19:33:06.876Z,10.49
2018-09-24T19:35:41.212Z,10.48
2018-09-24T19:38:15.577Z,10.28
2018-09-24T19:40:50.193Z,10.21
2018-09-24T19:43:24.665Z,10.17
2018-09-24T19:45:58.977Z,10.05
2018-09-24T19:48:33.997Z,10.05
2018-09-24T19:51:08.287Z,9.86
2018-09-24T19:53:42.659Z,9.86
2018-09-24T19:56:16.988Z,9.78
2018-09-24T19:58:51.848Z,9.75
2018-09-24T20:01:26.301Z,9.70
2018-09-24T20:04:00.596Z,9.80
2018-09-24T20:06:34.916Z,9.51
2018-09-24T20:09:10.208Z,9.65
2018-09-24T20:11:44.524Z,9.74
2018-09-24T20:14:18.853Z,9.74
2018-09-24T20:16:53.301Z,9.68
2018-09-24T20:19:27.944Z,9.59
2018-09-24T20:22:02.304Z,9.58
2018-09-24T20:24:36.820Z,9.56
2018-09-24T20:27:11.436Z,9.51
2018-09-24T20:29:45.820Z,9.50
2018-09-24T20:32:20.236Z,9.38
2018-09-24T20:34:54.581Z,9.23
2018-09-24T20:37:28.900Z,9.24
2018-09-24T20:40:03.445Z,9.22
2018-09-24T20:42:37.692Z,9.15
2018-09-24T20:45:12.895Z,9.18
2018-09-24T20:47:47.208Z,9.15
2018-09-24T20:50:21.652Z,9.13
2018-09-24T20:52:55.969Z,9.05
2018-09-24T20:55:30.432Z,8.93
2018-09-24T20:58:04.697Z,8.83
2018-09-24T21:00:39.272Z,8.84
2018-09-24T21:03:13.528Z,8.82
2018-09-24T21:05:47.893Z,8.79
2018-09-24T21:08:22.276Z,8.59
2018-09-24T21:10:56.772Z,8.60
2018-09-24T21:13:31.137Z,8.58
2018-09-24T21:16:05.488Z,8.57
2018-09-24T21:18:39.794Z,8.61
2018-09-24T21:21:14.588Z,8.56
2018-09-24T21:23:48.860Z,8.50
2018-09-24T21:26:23.272Z,8.41
2018-09-24T21:28:57.552Z,8.32
2018-09-24T21:31:31.848Z,8.32
2018-09-24T21:34:06.120Z,8.14
2018-09-24T21:36:40.541Z,8.16
2018-09-24T21:39:14.988Z,8.12
2018-09-24T21:41:49.317Z,8.08
2018-09-24T21:44:23.620Z,8.04
2018-09-24T21:46:58.092Z,8.02
2018-09-24T21:49:32.404Z,7.99
2018-09-24T21:52:06.989Z,7.87
2018-09-24T21:54:41.223Z,7.84
2018-09-24T21:57:15.721Z,7.73
2018-09-24T21:59:50.087Z,7.69
2018-09-24T22:02:24.332Z,7.72
2018-09-24T22:04:58.681Z,7.70
2018-09-24T22:07:33.017Z,7.75
2018-09-24T22:10:07.345Z,7.71
2018-09-24T22:12:41.732Z,7.73
2018-09-24T22:15:16.048Z,7.71
2018-09-24T22:17:50.394Z,7.67
2018-09-24T22:20:24.704Z,7.62
2018-09-24T22:22:59.428Z,7.51
2018-09-24T22:25:33.732Z,7.40
2018-09-24T22:28:08.272Z,7.12
2018-09-24T22:30:42.722Z,7.12
2018-09-24T22:33:25.725Z,7.13
2018-09-24T22:36:00.002Z,7.10
2018-09-24T22:38:34.624Z,7.07
2018-09-24T22:41:08.876Z,7.07
2018-09-24T22:43:43.247Z,7.06
2018-09-24T22:46:17.802Z,7.10
2018-09-24T22:48:52.316Z,7.06
2018-09-24T22:51:26.560Z,6.94
2018-09-24T22:54:00.893Z,6.92
2018-09-24T22:56:35.156Z,6.90
2018-09-24T22:59:09.488Z,6.91
2018-09-24T23:01:43.820Z,6.85
2018-09-24T23:04:18.172Z,6.80
2018-09-24T23:06:52.440Z,6.73
2018-09-24T23:09:26.756Z,6.70
2018-09-24T23:12:01.004Z,6.73
2018-09-24T23:14:35.369Z,6.72
2018-09-24T23:17:09.717Z,6.70
2018-09-24T23:19:44.122Z,6.63
2018-09-24T23:22:18.496Z,6.60
2018-09-24T23:24:53.064Z,6.59
2018-09-24T23:27:27.333Z,6.51
2018-09-24T23:30:01.724Z,6.55
2018-09-24T23:32:35.952Z,6.56
2018-09-24T23:35:10.553Z,6.55
2018-09-24T23:37:44.845Z,6.53
2018-09-24T23:40:19.209Z,6.50
2018-09-24T23:42:53.541Z,6.42
2018-09-24T23:45:27.857Z,6.44
2018-09-24T23:48:02.601Z,6.39
2018-09-24T23:50:37.368Z,6.33
2018-09-24T23:53:12.035Z,6.25
2018-09-24T23:55:46.468Z,6.22
2018-09-24T23:58:20.844Z,6.20
